This is the latest recevied weather packets stored in our database for station/object OE6JUE. If no packets are shown the sender has not sent any weather packets the latest 10 day(s).
| Time | Temp. | Humidity | Pressure | Rain* | Wind** | Luminosity | Snow |
|---|---|---|---|---|---|---|---|
| 1787972913 | 22.22° C | 45% | 1016.3 hPa | 0 mm | - | - | - |
| 1787972614 | 22.22° C | 45% | 1016.3 hPa | 0 mm | - | - | - |
| 1787972313 | 21.67° C | 46% | 1016.2 hPa | 0 mm | - | - | - |
| 1787972013 | 22.22° C | 46% | 1016.3 hPa | 0 mm | - | - | - |
| 1787971713 | 22.22° C | 47% | 1016.2 hPa | 0 mm | - | - | - |
| 1787971413 | 22.22° C | 48% | 1016 hPa | 0 mm | - | - | - |
| 1787971114 | 21.67° C | 50% | 1015.8 hPa | 0 mm | - | - | - |
| 1787970813 | 22.22° C | 52% | 1015.8 hPa | 0 mm | - | - | - |
| 1787970513 | 22.22° C | 54% | 1015.7 hPa | 0 mm | - | - | - |
| 1787970213 | 22.22° C | 56% | 1015.8 hPa | 0 mm | - | - | - |
| 1787969914 | 22.22° C | 58% | 1015.7 hPa | 0 mm | - | - | - |
| 1787969613 | 22.22° C | 62% | 1015.5 hPa | 0 mm | - | - | - |
| 1787969313 | 22.22° C | 65% | 1015.4 hPa | 0 mm | - | - | - |
| 1787969013 | 22.78° C | 60% | 1015.4 hPa | 0 mm | - | - | - |
| 1787968714 | 23.33° C | 58% | 1015.9 hPa | 0 mm | - | - | - |
| 1787968414 | 24.44° C | 56% | 1015.4 hPa | 0 mm | - | - | - |
| 1787968113 | 24.44° C | 56% | 1015.5 hPa | 0 mm | - | - | - |
| 1787967814 | 24.44° C | 60% | 1015.6 hPa | 0 mm | - | - | - |
| 1787967514 | 23.89° C | 62% | 1015.2 hPa | 0 mm | - | - | - |
| 1787967217 | 23.33° C | 64% | 1015 hPa | 0 mm | - | - | - |
| 1787966913 | 22.22° C | 70% | 1015.3 hPa | 0 mm | - | - | - |
| 1787966614 | 22.22° C | 70% | 1015.2 hPa | 0 mm | - | - | - |
| 1787966313 | 22.22° C | 69% | 1015 hPa | 0 mm | - | - | - |
| 1787966013 | 22.22° C | 69% | 1015 hPa | 0 mm | - | - | - |
| 1787965713 | 22.22° C | 68% | 1014.9 hPa | 0 mm | - | - | - |
* Rain latest hour (hover to see other rain measurements)
** Current wind speed in m/s (hover to see current wind gust speed)